createdAt,value
2023-10-06T00:02:31.044Z,6.20
2023-10-06T00:05:02.518Z,5.70
2023-10-06T00:07:32.751Z,5.87
2023-10-06T00:10:10.184Z,5.80
2023-10-06T00:12:41.129Z,5.80
2023-10-06T00:15:13.473Z,6.23
2023-10-06T00:17:50.437Z,5.73
2023-10-06T00:20:40.624Z,6.40
2023-10-06T00:23:14.205Z,5.47
2023-10-06T00:25:45.023Z,5.90
2023-10-06T00:28:19.479Z,5.40
2023-10-06T00:30:56.721Z,5.60
2023-10-06T00:33:33.900Z,5.03
2023-10-06T00:36:13.067Z,5.37
2023-10-06T00:38:44.292Z,5.60
2023-10-06T00:41:16.107Z,5.93
2023-10-06T00:43:48.297Z,8.00
2023-10-06T00:46:20.177Z,6.70
2023-10-06T00:48:55.080Z,5.07
2023-10-06T00:51:27.498Z,5.30
2023-10-06T00:53:58.570Z,4.93
2023-10-06T00:56:30.624Z,4.77
2023-10-06T00:59:05.473Z,4.50
2023-10-06T01:01:35.915Z,4.47
2023-10-06T01:04:09.810Z,4.50
2023-10-06T01:06:40.752Z,4.33
2023-10-06T01:09:16.598Z,5.03
2023-10-06T01:11:49.368Z,4.30
2023-10-06T01:14:23.570Z,4.40
2023-10-06T01:16:54.656Z,4.07
2023-10-06T01:19:28.684Z,4.77
2023-10-06T01:21:58.400Z,4.73
2023-10-06T01:24:31.004Z,4.17
2023-10-06T01:27:02.226Z,4.37
2023-10-06T01:29:32.319Z,4.57
2023-10-06T01:32:06.253Z,4.17
2023-10-06T01:34:39.500Z,4.10
2023-10-06T01:37:11.098Z,4.37
2023-10-06T01:39:42.420Z,4.03
2023-10-06T01:42:18.253Z,3.90
2023-10-06T01:44:47.892Z,3.70
2023-10-06T01:47:19.951Z,4.07
2023-10-06T01:49:49.513Z,4.03
2023-10-06T01:52:20.865Z,4.10
2023-10-06T01:54:51.798Z,3.70
2023-10-06T01:57:20.990Z,3.70
2023-10-06T01:59:50.601Z,3.97
2023-10-06T02:02:25.164Z,3.93
2023-10-06T02:04:58.596Z,4.00
2023-10-06T02:07:27.886Z,3.83
2023-10-06T02:09:58.504Z,3.60
2023-10-06T02:12:27.606Z,3.80
2023-10-06T02:14:57.900Z,4.00
2023-10-06T02:17:27.144Z,3.77
2023-10-06T02:19:56.408Z,3.57
2023-10-06T02:22:25.876Z,4.00
2023-10-06T02:24:55.141Z,3.90
2023-10-06T02:27:25.926Z,3.60
2023-10-06T02:29:58.120Z,3.83
2023-10-06T02:32:27.352Z,3.60
2023-10-06T02:34:57.088Z,3.40
2023-10-06T02:37:27.147Z,3.80
2023-10-06T02:39:56.329Z,3.47
2023-10-06T02:42:27.238Z,3.77
2023-10-06T02:44:57.215Z,4.20
2023-10-06T02:47:28.865Z,4.03
2023-10-06T02:50:01.308Z,4.27
2023-10-06T02:52:39.135Z,4.40
2023-10-06T02:55:11.497Z,4.03
2023-10-06T02:57:52.555Z,4.80
2023-10-06T03:00:31.702Z,4.50
2023-10-06T03:03:13.803Z,4.77
2023-10-06T03:05:51.020Z,4.80
2023-10-06T03:08:23.749Z,4.43
2023-10-06T03:10:53.045Z,4.93
2023-10-06T03:13:33.906Z,5.27
2023-10-06T03:16:12.016Z,5.40
2023-10-06T03:18:42.393Z,5.27
2023-10-06T03:21:16.036Z,4.97
2023-10-06T03:23:48.779Z,5.10
2023-10-06T03:26:26.822Z,5.03
2023-10-06T03:29:04.207Z,4.87
2023-10-06T03:31:46.413Z,4.80
2023-10-06T03:34:24.279Z,5.43
2023-10-06T03:36:54.022Z,5.40
2023-10-06T03:39:29.410Z,5.40
2023-10-06T03:42:02.176Z,5.77
2023-10-06T03:44:36.077Z,5.20
2023-10-06T03:47:09.414Z,5.30
2023-10-06T03:49:38.824Z,5.03
2023-10-06T03:52:11.239Z,5.20
2023-10-06T03:54:41.110Z,5.27
2023-10-06T03:57:12.837Z,5.87
2023-10-06T03:59:46.191Z,5.63
2023-10-06T04:02:16.619Z,6.00
2023-10-06T04:04:45.919Z,6.33
2023-10-06T04:07:15.224Z,7.10
2023-10-06T04:09:50.685Z,6.90
2023-10-06T04:12:20.282Z,7.67
2023-10-06T04:14:51.363Z,7.57
2023-10-06T04:17:23.182Z,7.23
2023-10-06T04:19:52.865Z,7.80
2023-10-06T04:22:22.121Z,8.30
2023-10-06T04:24:51.234Z,8.20
2023-10-06T04:27:20.504Z,8.30
2023-10-06T04:29:50.982Z,8.97
2023-10-06T04:32:20.178Z,9.10
2023-10-06T04:34:49.601Z,8.93
2023-10-06T04:37:18.848Z,8.87
2023-10-06T04:39:48.279Z,9.10
2023-10-06T04:42:19.902Z,9.57
2023-10-06T04:44:51.765Z,9.43
2023-10-06T04:47:21.969Z,9.67
2023-10-06T04:49:54.260Z,9.33
2023-10-06T04:52:23.468Z,9.43
2023-10-06T04:54:53.468Z,8.80
2023-10-06T04:57:22.817Z,9.23
2023-10-06T04:59:55.873Z,9.10
2023-10-06T05:02:25.787Z,9.17
2023-10-06T05:04:55.221Z,9.37
2023-10-06T05:07:26.113Z,9.20
2023-10-06T05:09:57.080Z,9.03
2023-10-06T05:12:26.282Z,9.87
2023-10-06T05:14:58.669Z,9.17
2023-10-06T05:17:28.774Z,9.93
2023-10-06T05:20:00.272Z,8.63
2023-10-06T05:22:29.647Z,8.77
2023-10-06T05:25:01.194Z,9.43
2023-10-06T05:27:31.070Z,8.40
2023-10-06T05:30:01.888Z,9.40
2023-10-06T05:32:32.345Z,8.90
2023-10-06T05:35:01.810Z,9.10
2023-10-06T05:37:30.992Z,8.53
2023-10-06T05:40:00.268Z,8.53
2023-10-06T05:42:29.353Z,9.33
2023-10-06T05:44:58.565Z,8.83
2023-10-06T05:47:30.139Z,8.33
2023-10-06T05:50:01.416Z,9.00
2023-10-06T05:52:30.624Z,9.10
2023-10-06T05:55:01.861Z,8.77
2023-10-06T05:57:32.566Z,9.30
2023-10-06T06:00:02.527Z,9.43
2023-10-06T06:02:38.860Z,9.33
2023-10-06T06:05:10.965Z,9.90
2023-10-06T06:07:40.346Z,10.47
2023-10-06T06:10:14.725Z,10.30
2023-10-06T06:12:44.198Z,11.87
2023-10-06T06:15:13.752Z,13.00
2023-10-06T06:17:44.479Z,11.87
2023-10-06T06:20:18.520Z,12.33
2023-10-06T06:22:52.119Z,12.43
2023-10-06T06:25:21.473Z,12.87
2023-10-06T06:27:50.617Z,12.27
2023-10-06T06:30:20.558Z,11.77
2023-10-06T06:32:51.289Z,12.10
2023-10-06T06:35:21.175Z,11.93
2023-10-06T06:37:52.622Z,11.70
2023-10-06T06:40:22.525Z,11.50
2023-10-06T06:42:52.916Z,11.53
2023-10-06T06:45:22.808Z,11.83
2023-10-06T06:47:53.817Z,11.60
2023-10-06T06:50:24.246Z,11.27
2023-10-06T06:52:55.859Z,13.30
2023-10-06T06:55:25.846Z,11.17
2023-10-06T06:57:57.305Z,10.73
2023-10-06T07:00:27.247Z,10.93
2023-10-06T07:03:00.333Z,12.40
2023-10-06T07:05:31.355Z,12.00
2023-10-06T07:08:02.646Z,12.80
2023-10-06T07:10:32.428Z,13.47
2023-10-06T07:13:02.327Z,12.97
2023-10-06T07:15:31.638Z,12.80
2023-10-06T07:18:02.267Z,11.87
2023-10-06T07:20:34.205Z,12.93
2023-10-06T07:23:05.142Z,14.27
2023-10-06T07:25:34.625Z,14.00
2023-10-06T07:28:03.791Z,15.13
2023-10-06T07:30:36.209Z,15.57
2023-10-06T07:33:07.846Z,14.87
2023-10-06T07:35:46.909Z,15.73
2023-10-06T07:38:16.648Z,15.53
2023-10-06T07:40:45.991Z,19.67
2023-10-06T07:43:17.145Z,17.70
2023-10-06T07:45:46.349Z,21.97
2023-10-06T07:48:17.002Z,17.37
2023-10-06T07:50:46.207Z,17.00
2023-10-06T07:53:15.445Z,17.30
2023-10-06T07:55:44.634Z,16.93
2023-10-06T07:58:16.415Z,17.43
2023-10-06T08:00:45.704Z,17.20
2023-10-06T08:03:14.873Z,17.50
2023-10-06T08:05:45.466Z,15.40
2023-10-06T08:08:14.638Z,15.37
2023-10-06T08:10:43.942Z,15.33
2023-10-06T08:13:13.110Z,16.13
2023-10-06T08:15:46.436Z,16.27
2023-10-06T08:18:16.637Z,16.80
2023-10-06T08:20:47.612Z,14.80
2023-10-06T08:23:17.687Z,15.67
2023-10-06T08:25:59.538Z,15.20
2023-10-06T08:28:33.262Z,14.83
2023-10-06T08:31:04.686Z,13.63
2023-10-06T08:33:37.406Z,14.33
2023-10-06T08:36:12.071Z,14.27
2023-10-06T08:38:41.354Z,13.23
2023-10-06T08:41:11.611Z,12.60
2023-10-06T08:43:41.433Z,10.53
2023-10-06T08:46:11.989Z,10.67
2023-10-06T08:48:42.393Z,9.50
2023-10-06T08:51:16.824Z,9.73
2023-10-06T08:53:50.998Z,9.97
2023-10-06T08:56:21.088Z,10.73
2023-10-06T08:58:51.330Z,10.30
2023-10-06T09:01:22.391Z,9.90
2023-10-06T09:03:54.643Z,9.53
2023-10-06T09:06:27.276Z,8.20
2023-10-06T09:08:57.029Z,6.37
2023-10-06T09:11:39.773Z,6.67
2023-10-06T09:14:10.251Z,6.63
2023-10-06T09:16:59.025Z,6.53
2023-10-06T09:19:28.246Z,7.93
2023-10-06T09:22:06.160Z,7.73
2023-10-06T09:24:35.538Z,8.13
2023-10-06T09:27:23.083Z,6.93
2023-10-06T09:30:01.263Z,6.32
2023-10-06T09:32:31.178Z,6.72
2023-10-06T09:35:00.306Z,7.45
2023-10-06T09:37:31.241Z,6.20
2023-10-06T09:40:16.436Z,6.07
2023-10-06T09:42:49.645Z,6.40
2023-10-06T09:45:22.997Z,6.07
2023-10-06T09:48:47.432Z,6.88
2023-10-06T09:51:37.697Z,7.05
2023-10-06T09:54:10.932Z,7.22
2023-10-06T09:56:42.223Z,6.78
2023-10-06T09:59:14.055Z,6.22
2023-10-06T10:01:47.349Z,5.65
2023-10-06T10:04:18.223Z,5.28
2023-10-06T10:06:47.642Z,5.93
2023-10-06T10:09:18.931Z,5.30
2023-10-06T10:11:57.784Z,4.50
2023-10-06T10:14:46.600Z,4.80
2023-10-06T10:17:27.031Z,5.65
2023-10-06T10:19:57.017Z,5.25
2023-10-06T10:22:27.232Z,4.70
2023-10-06T10:25:23.148Z,4.97
2023-10-06T10:28:18.569Z,4.90
2023-10-06T10:30:58.052Z,5.00
2023-10-06T10:33:31.581Z,5.97
2023-10-06T10:36:23.170Z,5.63
2023-10-06T10:39:10.891Z,5.32
2023-10-06T10:41:42.901Z,5.45
2023-10-06T10:44:24.600Z,5.22
2023-10-06T10:46:57.698Z,5.60
2023-10-06T10:49:32.026Z,5.88
2023-10-06T10:52:06.363Z,6.13
2023-10-06T10:54:37.077Z,4.72
2023-10-06T10:57:15.552Z,5.15
2023-10-06T11:00:22.084Z,5.30
2023-10-06T11:03:06.078Z,5.07
2023-10-06T11:05:38.676Z,5.07
2023-10-06T11:08:08.149Z,4.75
2023-10-06T11:10:39.671Z,7.57
2023-10-06T11:13:19.898Z,11.32
2023-10-06T11:15:50.693Z,5.95
2023-10-06T11:18:22.120Z,5.45
2023-10-06T11:20:51.748Z,4.90
2023-10-06T11:23:21.010Z,4.55
2023-10-06T11:25:51.628Z,4.68
2023-10-06T11:28:22.707Z,5.85
2023-10-06T11:30:52.164Z,7.13
2023-10-06T11:33:24.466Z,5.90
2023-10-06T11:35:57.333Z,5.85
2023-10-06T11:38:26.667Z,5.80
2023-10-06T11:40:57.591Z,5.43
2023-10-06T11:43:32.220Z,5.95
2023-10-06T11:46:03.894Z,6.45
2023-10-06T11:48:35.365Z,6.13
2023-10-06T11:51:08.441Z,5.78
2023-10-06T11:53:41.572Z,6.82
2023-10-06T11:56:13.936Z,5.95
2023-10-06T11:58:46.640Z,5.55
2023-10-06T12:01:29.170Z,6.13
2023-10-06T12:04:07.258Z,6.25
2023-10-06T12:06:40.346Z,6.15
2023-10-06T12:09:14.321Z,6.13
2023-10-06T12:12:33.161Z,5.85
2023-10-06T12:15:04.050Z,5.65
2023-10-06T12:17:39.048Z,4.90
2023-10-06T12:20:14.837Z,5.60
2023-10-06T12:22:47.526Z,5.25
2023-10-06T12:25:17.571Z,4.38
2023-10-06T12:27:47.097Z,4.60
2023-10-06T12:30:18.761Z,4.90
2023-10-06T12:32:48.816Z,4.68
2023-10-06T12:35:21.197Z,4.28
2023-10-06T12:37:50.838Z,4.28
2023-10-06T12:40:20.864Z,4.07
2023-10-06T12:42:50.414Z,4.40
2023-10-06T12:45:21.083Z,3.60
2023-10-06T12:47:51.433Z,3.50
2023-10-06T12:50:22.655Z,3.28
2023-10-06T12:52:54.455Z,3.50
2023-10-06T12:55:25.919Z,3.25
2023-10-06T12:57:56.883Z,2.95
2023-10-06T13:00:29.616Z,2.83
2023-10-06T13:02:59.696Z,3.15
2023-10-06T13:05:29.301Z,2.85
2023-10-06T13:08:11.686Z,2.70
2023-10-06T13:10:40.899Z,2.80
2023-10-06T13:13:10.308Z,2.67
2023-10-06T13:15:42.569Z,2.58
2023-10-06T13:18:11.933Z,2.90
2023-10-06T13:20:42.172Z,3.15
2023-10-06T13:23:11.880Z,3.00
2023-10-06T13:25:42.955Z,2.78
2023-10-06T13:28:16.621Z,3.00
2023-10-06T13:30:48.319Z,2.75
2023-10-06T13:33:17.731Z,3.15
2023-10-06T13:35:49.189Z,3.13
2023-10-06T13:38:18.747Z,2.92
2023-10-06T13:40:48.313Z,3.13
2023-10-06T13:43:19.052Z,3.33
2023-10-06T13:45:50.953Z,3.17
2023-10-06T13:48:23.974Z,3.05
2023-10-06T13:50:54.132Z,2.88
2023-10-06T13:53:23.427Z,2.70
2023-10-06T13:55:52.785Z,2.80
2023-10-06T13:58:22.917Z,2.53
2023-10-06T14:00:57.659Z,2.70
2023-10-06T14:03:27.546Z,2.60
2023-10-06T14:06:01.633Z,2.55
2023-10-06T14:08:34.808Z,2.55
2023-10-06T14:11:04.638Z,2.83
2023-10-06T14:13:35.532Z,3.17
2023-10-06T14:16:11.810Z,2.72
2023-10-06T14:18:41.874Z,3.15
2023-10-06T14:21:13.449Z,3.38
2023-10-06T14:23:47.586Z,2.88
2023-10-06T14:26:19.970Z,3.00
2023-10-06T14:28:50.553Z,2.40
2023-10-06T14:31:27.359Z,2.80
2023-10-06T14:34:32.441Z,2.72
2023-10-06T14:37:02.693Z,2.78
2023-10-06T14:39:49.346Z,3.17
2023-10-06T14:42:35.918Z,2.38
2023-10-06T14:45:24.237Z,2.50
2023-10-06T14:47:54.959Z,2.53
2023-10-06T14:50:25.938Z,2.60
2023-10-06T14:52:55.389Z,3.20
2023-10-06T14:55:25.203Z,2.67
2023-10-06T14:57:56.840Z,2.45
2023-10-06T15:00:28.499Z,2.30
2023-10-06T15:02:59.330Z,2.63
2023-10-06T15:05:28.815Z,2.70
2023-10-06T15:07:58.389Z,2.42
2023-10-06T15:10:29.937Z,2.83
2023-10-06T15:13:00.206Z,2.60
2023-10-06T15:16:13.878Z,2.38
2023-10-06T15:19:02.903Z,3.00
2023-10-06T15:21:32.335Z,2.75
2023-10-06T15:24:01.614Z,2.78
2023-10-06T15:26:30.934Z,4.85
2023-10-06T15:29:00.289Z,3.55
2023-10-06T15:31:30.230Z,2.53
2023-10-06T15:33:59.658Z,2.58
2023-10-06T15:36:31.375Z,2.67
2023-10-06T15:39:04.354Z,2.40
2023-10-06T15:41:33.633Z,2.42
2023-10-06T15:44:05.007Z,2.53
2023-10-06T15:46:35.963Z,2.30
2023-10-06T15:49:05.181Z,2.78
2023-10-06T15:51:35.970Z,3.10
2023-10-06T15:54:07.326Z,2.28
2023-10-06T15:56:36.767Z,2.67
2023-10-06T15:59:08.078Z,2.67
2023-10-06T16:01:38.305Z,2.30
2023-10-06T16:04:07.972Z,2.67
2023-10-06T16:06:39.482Z,2.33
2023-10-06T16:09:11.903Z,2.70
2023-10-06T16:11:42.773Z,2.80
2023-10-06T16:14:13.724Z,2.80
2023-10-06T16:16:43.149Z,2.80
2023-10-06T16:19:14.832Z,2.60
2023-10-06T16:21:45.722Z,2.70
2023-10-06T16:24:15.898Z,2.55
2023-10-06T16:26:46.333Z,2.75
2023-10-06T16:29:17.756Z,2.80
2023-10-06T16:31:47.698Z,3.17
2023-10-06T16:34:17.066Z,2.85
2023-10-06T16:36:47.924Z,2.87
2023-10-06T16:39:23.095Z,2.50
2023-10-06T16:41:54.992Z,2.80
2023-10-06T16:44:24.933Z,2.95
2023-10-06T16:46:56.709Z,2.78
2023-10-06T16:49:25.821Z,2.80
2023-10-06T16:51:56.373Z,3.03
2023-10-06T16:54:25.574Z,2.80
2023-10-06T16:56:57.760Z,2.95
2023-10-06T16:59:26.882Z,3.08
2023-10-06T17:01:56.284Z,3.85
2023-10-06T17:04:25.786Z,3.15
2023-10-06T17:06:56.994Z,3.70
2023-10-06T17:09:32.629Z,2.90
2023-10-06T17:12:07.635Z,2.93
2023-10-06T17:14:37.591Z,3.03
2023-10-06T17:17:06.863Z,3.50
2023-10-06T17:19:37.335Z,3.42
2023-10-06T17:22:10.178Z,2.87
2023-10-06T17:24:39.574Z,3.35
2023-10-06T17:27:08.838Z,3.58
2023-10-06T17:29:38.172Z,3.42
2023-10-06T17:32:07.377Z,3.58
2023-10-06T17:34:37.138Z,3.40
2023-10-06T17:39:42.150Z,3.63
2023-10-06T17:42:11.725Z,3.55
2023-10-06T17:44:46.082Z,3.88
2023-10-06T17:47:16.757Z,3.30
2023-10-06T17:49:47.443Z,3.92
2023-10-06T17:52:19.200Z,4.00
2023-10-06T17:54:49.637Z,3.90
2023-10-06T17:57:20.875Z,4.00
2023-10-06T17:59:51.171Z,3.73
2023-10-06T18:02:24.040Z,4.05
2023-10-06T18:04:55.312Z,3.97
2023-10-06T18:07:29.317Z,4.10
2023-10-06T18:10:00.908Z,4.27
2023-10-06T18:12:32.209Z,4.23
2023-10-06T18:15:03.217Z,3.57
2023-10-06T18:17:37.350Z,3.67
2023-10-06T18:20:11.073Z,3.67
2023-10-06T18:22:43.874Z,4.30
2023-10-06T18:25:14.960Z,3.83
2023-10-06T18:27:46.528Z,3.97
2023-10-06T18:30:17.977Z,4.17
2023-10-06T18:32:49.401Z,4.40
2023-10-06T18:35:19.999Z,4.23
2023-10-06T18:37:53.326Z,4.27
2023-10-06T18:40:25.202Z,3.97
2023-10-06T18:42:55.996Z,4.03
2023-10-06T18:45:26.740Z,4.13
2023-10-06T18:47:57.952Z,4.20
2023-10-06T18:50:30.634Z,4.33
2023-10-06T18:53:03.429Z,4.27
2023-10-06T18:55:33.861Z,4.83
2023-10-06T18:58:05.742Z,4.17
2023-10-06T19:00:40.386Z,4.23
2023-10-06T19:03:13.676Z,3.80
2023-10-06T19:05:48.127Z,4.60
2023-10-06T19:08:22.512Z,4.83
2023-10-06T19:10:54.208Z,4.70
2023-10-06T19:13:26.038Z,4.40
2023-10-06T19:15:57.979Z,4.37
2023-10-06T19:18:30.523Z,4.17
2023-10-06T19:21:03.334Z,4.30
2023-10-06T19:23:38.031Z,4.40
2023-10-06T19:26:10.923Z,4.60
2023-10-06T19:28:42.201Z,4.50
2023-10-06T19:31:12.982Z,4.23
2023-10-06T19:33:49.124Z,4.20
2023-10-06T19:36:21.586Z,4.27
2023-10-06T19:38:55.805Z,4.80
2023-10-06T19:41:27.963Z,4.60
2023-10-06T19:43:59.358Z,4.50
2023-10-06T19:46:30.760Z,4.47
2023-10-06T19:49:02.307Z,4.73
2023-10-06T19:51:32.912Z,4.50
2023-10-06T19:54:07.455Z,4.73
2023-10-06T19:56:39.202Z,4.40
2023-10-06T19:59:11.610Z,4.27
2023-10-06T20:01:44.058Z,4.53
2023-10-06T20:04:16.530Z,4.80
2023-10-06T20:06:47.177Z,4.40
2023-10-06T20:09:22.965Z,4.50
2023-10-06T20:11:54.297Z,4.47
2023-10-06T20:14:24.306Z,4.50
2023-10-06T20:16:54.733Z,4.40
2023-10-06T20:19:25.007Z,4.43
2023-10-06T20:21:55.799Z,4.70
2023-10-06T20:24:27.740Z,4.40
2023-10-06T20:26:57.652Z,4.70
2023-10-06T20:29:28.882Z,4.53
2023-10-06T20:31:59.662Z,4.40
2023-10-06T20:34:29.425Z,4.23
2023-10-06T20:36:58.958Z,4.73
2023-10-06T20:39:30.098Z,4.40
2023-10-06T20:42:00.898Z,4.57
2023-10-06T20:44:32.286Z,4.57
2023-10-06T20:47:01.508Z,4.90
2023-10-06T20:49:31.349Z,4.43
2023-10-06T20:52:00.764Z,4.55
2023-10-06T20:54:31.932Z,4.20
2023-10-06T20:57:01.082Z,4.33
2023-10-06T20:59:30.280Z,4.20
2023-10-06T21:01:59.412Z,4.50
2023-10-06T21:04:28.771Z,4.93
2023-10-06T21:06:58.270Z,4.70
2023-10-06T21:09:29.315Z,4.20
2023-10-06T21:11:59.946Z,4.50
2023-10-06T21:14:29.002Z,4.90
2023-10-06T21:16:58.363Z,5.10
2023-10-06T21:19:27.845Z,4.83
2023-10-06T21:21:57.197Z,5.57
2023-10-06T21:24:26.915Z,4.77
2023-10-06T21:26:55.959Z,4.90
2023-10-06T21:29:27.175Z,5.27
2023-10-06T21:31:56.901Z,5.37
2023-10-06T21:34:26.728Z,5.23
2023-10-06T21:36:56.940Z,5.30
2023-10-06T21:39:26.621Z,5.23
2023-10-06T21:41:55.934Z,6.00
2023-10-06T21:44:26.875Z,5.57
2023-10-06T21:46:58.384Z,5.27
2023-10-06T21:49:27.722Z,5.83
2023-10-06T21:51:57.541Z,6.00
2023-10-06T21:54:26.705Z,5.37
2023-10-06T21:56:55.801Z,5.83
2023-10-06T21:59:26.355Z,6.23
2023-10-06T22:01:55.553Z,5.70
2023-10-06T22:04:24.924Z,6.20
2023-10-06T22:06:54.547Z,5.47
2023-10-06T22:09:23.723Z,5.70
2023-10-06T22:11:53.592Z,6.60
2023-10-06T22:14:22.915Z,5.73
2023-10-06T22:16:53.997Z,6.13
2023-10-06T22:19:23.062Z,6.03
2023-10-06T22:21:52.269Z,6.27
2023-10-06T22:24:21.850Z,5.87
2023-10-06T22:26:52.108Z,5.63
2023-10-06T22:29:21.671Z,6.07
2023-10-06T22:31:51.454Z,5.57
2023-10-06T22:34:23.739Z,5.33
2023-10-06T22:36:56.774Z,9.57
2023-10-06T22:39:32.078Z,7.33
2023-10-06T22:42:01.327Z,5.70
2023-10-06T22:44:30.429Z,5.90
2023-10-06T22:46:59.626Z,5.57
2023-10-06T22:49:30.385Z,5.73
2023-10-06T22:52:00.664Z,5.47
2023-10-06T22:54:29.959Z,5.90
2023-10-06T22:57:00.742Z,5.23
2023-10-06T22:59:29.870Z,5.70
2023-10-06T23:01:59.879Z,5.53
2023-10-06T23:04:33.503Z,6.37
2023-10-06T23:07:03.164Z,6.50
2023-10-06T23:09:32.912Z,5.93
2023-10-06T23:12:02.755Z,5.40
2023-10-06T23:14:31.862Z,4.97
2023-10-06T23:17:02.483Z,5.40
2023-10-06T23:19:35.699Z,5.17
2023-10-06T23:22:04.895Z,5.17
2023-10-06T23:24:49.404Z,4.90
2023-10-06T23:27:20.943Z,4.77
2023-10-06T23:29:51.268Z,4.90
2023-10-06T23:32:20.528Z,4.70
2023-10-06T23:34:51.572Z,5.07
2023-10-06T23:37:20.910Z,5.33
2023-10-06T23:39:51.327Z,5.10
2023-10-06T23:42:25.222Z,4.80
2023-10-06T23:44:54.277Z,4.87
2023-10-06T23:47:24.665Z,4.97
2023-10-06T23:49:56.816Z,4.57
2023-10-06T23:52:27.908Z,4.97
2023-10-06T23:54:57.968Z,4.67
2023-10-06T23:57:28.370Z,4.73
2023-10-06T23:59:57.943Z,4.50
